sensor_id;sensor_type;location;lat;lon;timestamp;P1;durP1;ratioP1;P2;durP2;ratioP2
72422;SDS011;60413;55.658;37.498;2022-08-19T00:00:12;10.68;;;3.47;;
72422;SDS011;60413;55.658;37.498;2022-08-19T00:02:40;7.75;;;3.78;;
72422;SDS011;60413;55.658;37.498;2022-08-19T00:05:06;7.80;;;3.80;;
72422;SDS011;60413;55.658;37.498;2022-08-19T00:07:33;7.68;;;3.80;;
72422;SDS011;60413;55.658;37.498;2022-08-19T00:10:04;7.82;;;3.92;;
72422;SDS011;60413;55.658;37.498;2022-08-19T00:12:32;9.82;;;3.47;;
72422;SDS011;60413;55.658;37.498;2022-08-19T00:14:58;8.10;;;3.55;;
72422;SDS011;60413;55.658;37.498;2022-08-19T00:17:24;7.40;;;3.72;;
72422;SDS011;60413;55.658;37.498;2022-08-19T00:19:50;8.38;;;3.63;;
72422;SDS011;60413;55.658;37.498;2022-08-19T00:22:18;9.25;;;3.22;;
72422;SDS011;60413;55.658;37.498;2022-08-19T00:24:45;4.97;;;3.20;;
72422;SDS011;60413;55.658;37.498;2022-08-19T00:27:13;6.90;;;3.45;;
72422;SDS011;60413;55.658;37.498;2022-08-19T00:29:40;7.80;;;3.75;;
72422;SDS011;60413;55.658;37.498;2022-08-19T00:32:06;11.23;;;4.15;;
72422;SDS011;60413;55.658;37.498;2022-08-19T00:34:32;13.23;;;4.07;;
72422;SDS011;60413;55.658;37.498;2022-08-19T00:37:01;9.13;;;3.90;;
72422;SDS011;60413;55.658;37.498;2022-08-19T00:39:27;8.90;;;3.65;;
72422;SDS011;60413;55.658;37.498;2022-08-19T00:41:53;12.88;;;4.13;;
72422;SDS011;60413;55.658;37.498;2022-08-19T00:44:22;13.20;;;4.03;;
72422;SDS011;60413;55.658;37.498;2022-08-19T00:46:50;11.13;;;3.85;;
72422;SDS011;60413;55.658;37.498;2022-08-19T00:52:15;11.75;;;4.25;;
72422;SDS011;60413;55.658;37.498;2022-08-19T00:54:48;11.65;;;4.32;;
72422;SDS011;60413;55.658;37.498;2022-08-19T00:57:18;15.80;;;4.55;;
72422;SDS011;60413;55.658;37.498;2022-08-19T00:59:52;9.43;;;4.82;;
72422;SDS011;60413;55.658;37.498;2022-08-19T01:02:21;14.88;;;4.68;;
72422;SDS011;60413;55.658;37.498;2022-08-19T01:04:56;9.65;;;4.07;;
72422;SDS011;60413;55.658;37.498;2022-08-19T01:07:23;9.98;;;4.22;;
72422;SDS011;60413;55.658;37.498;2022-08-19T01:09:51;11.27;;;4.65;;
72422;SDS011;60413;55.658;37.498;2022-08-19T01:12:18;12.95;;;4.18;;
72422;SDS011;60413;55.658;37.498;2022-08-19T01:14:45;9.32;;;4.50;;
72422;SDS011;60413;55.658;37.498;2022-08-19T01:17:13;10.52;;;3.83;;
72422;SDS011;60413;55.658;37.498;2022-08-19T01:19:45;10.15;;;3.72;;
72422;SDS011;60413;55.658;37.498;2022-08-19T01:22:30;9.60;;;4.53;;
72422;SDS011;60413;55.658;37.498;2022-08-19T01:25:02;12.35;;;4.50;;
72422;SDS011;60413;55.658;37.498;2022-08-19T01:27:43;8.75;;;4.53;;
72422;SDS011;60413;55.658;37.498;2022-08-19T01:30:23;7.30;;;4.10;;
72422;SDS011;60413;55.658;37.498;2022-08-19T01:32:52;8.32;;;3.50;;
72422;SDS011;60413;55.658;37.498;2022-08-19T01:35:20;14.18;;;4.60;;
72422;SDS011;60413;55.658;37.498;2022-08-19T01:38:02;7.00;;;3.90;;
72422;SDS011;60413;55.658;37.498;2022-08-19T01:40:34;5.88;;;3.67;;
72422;SDS011;60413;55.658;37.498;2022-08-19T01:43:03;9.75;;;3.20;;
72422;SDS011;60413;55.658;37.498;2022-08-19T01:45:34;7.95;;;4.13;;
72422;SDS011;60413;55.658;37.498;2022-08-19T01:48:13;9.40;;;3.60;;
72422;SDS011;60413;55.658;37.498;2022-08-19T01:50:46;15.32;;;3.47;;
72422;SDS011;60413;55.658;37.498;2022-08-19T01:53:16;12.02;;;3.90;;
72422;SDS011;60413;55.658;37.498;2022-08-19T01:55:47;16.13;;;8.70;;
72422;SDS011;60413;55.658;37.498;2022-08-19T01:58:19;18.13;;;3.53;;
72422;SDS011;60413;55.658;37.498;2022-08-19T02:00:48;8.48;;;3.03;;
72422;SDS011;60413;55.658;37.498;2022-08-19T02:03:14;8.98;;;3.10;;
72422;SDS011;60413;55.658;37.498;2022-08-19T02:05:43;10.57;;;3.33;;
72422;SDS011;60413;55.658;37.498;2022-08-19T02:08:14;9.45;;;3.47;;
72422;SDS011;60413;55.658;37.498;2022-08-19T02:10:42;6.22;;;3.22;;
72422;SDS011;60413;55.658;37.498;2022-08-19T02:13:12;8.20;;;3.22;;
72422;SDS011;60413;55.658;37.498;2022-08-19T02:15:38;9.80;;;3.90;;
72422;SDS011;60413;55.658;37.498;2022-08-19T02:18:05;6.40;;;3.42;;
72422;SDS011;60413;55.658;37.498;2022-08-19T02:20:31;10.43;;;3.40;;
72422;SDS011;60413;55.658;37.498;2022-08-19T02:23:03;12.88;;;3.70;;
72422;SDS011;60413;55.658;37.498;2022-08-19T02:25:34;10.27;;;3.33;;
72422;SDS011;60413;55.658;37.498;2022-08-19T02:28:00;7.78;;;3.03;;
72422;SDS011;60413;55.658;37.498;2022-08-19T02:30:27;7.55;;;3.30;;
72422;SDS011;60413;55.658;37.498;2022-08-19T02:32:55;7.13;;;3.42;;
72422;SDS011;60413;55.658;37.498;2022-08-19T02:35:23;7.00;;;3.67;;
72422;SDS011;60413;55.658;37.498;2022-08-19T02:37:49;8.70;;;3.42;;
72422;SDS011;60413;55.658;37.498;2022-08-19T02:43:01;11.48;;;3.70;;
72422;SDS011;60413;55.658;37.498;2022-08-19T02:45:35;6.07;;;3.42;;
72422;SDS011;60413;55.658;37.498;2022-08-19T02:48:03;10.85;;;3.80;;
72422;SDS011;60413;55.658;37.498;2022-08-19T02:50:30;12.13;;;3.38;;
72422;SDS011;60413;55.658;37.498;2022-08-19T02:53:02;10.07;;;3.83;;
72422;SDS011;60413;55.658;37.498;2022-08-19T02:55:30;8.18;;;2.75;;
72422;SDS011;60413;55.658;37.498;2022-08-19T02:57:56;10.00;;;4.20;;
72422;SDS011;60413;55.658;37.498;2022-08-19T03:00:22;9.48;;;3.80;;
72422;SDS011;60413;55.658;37.498;2022-08-19T03:02:49;7.93;;;4.25;;
72422;SDS011;60413;55.658;37.498;2022-08-19T03:05:15;9.95;;;3.92;;
72422;SDS011;60413;55.658;37.498;2022-08-19T03:07:42;13.52;;;3.95;;
72422;SDS011;60413;55.658;37.498;2022-08-19T03:10:10;7.75;;;3.63;;
72422;SDS011;60413;55.658;37.498;2022-08-19T03:12:45;14.98;;;3.72;;
72422;SDS011;60413;55.658;37.498;2022-08-19T03:15:14;15.85;;;3.60;;
72422;SDS011;60413;55.658;37.498;2022-08-19T03:17:40;10.73;;;3.97;;
72422;SDS011;60413;55.658;37.498;2022-08-19T03:20:09;9.82;;;4.10;;
72422;SDS011;60413;55.658;37.498;2022-08-19T03:22:38;6.72;;;3.35;;
72422;SDS011;60413;55.658;37.498;2022-08-19T03:25:27;9.23;;;3.90;;
72422;SDS011;60413;55.658;37.498;2022-08-19T03:27:53;13.23;;;3.97;;
72422;SDS011;60413;55.658;37.498;2022-08-19T03:30:20;8.23;;;3.30;;
72422;SDS011;60413;55.658;37.498;2022-08-19T03:32:46;11.00;;;3.97;;
72422;SDS011;60413;55.658;37.498;2022-08-19T03:35:14;6.28;;;3.47;;
72422;SDS011;60413;55.658;37.498;2022-08-19T03:37:45;8.65;;;3.47;;
72422;SDS011;60413;55.658;37.498;2022-08-19T03:40:11;12.93;;;4.20;;
72422;SDS011;60413;55.658;37.498;2022-08-19T03:42:48;9.65;;;4.05;;
72422;SDS011;60413;55.658;37.498;2022-08-19T03:45:17;8.90;;;4.07;;
72422;SDS011;60413;55.658;37.498;2022-08-19T03:47:45;11.82;;;4.40;;
72422;SDS011;60413;55.658;37.498;2022-08-19T03:50:11;14.88;;;4.20;;
72422;SDS011;60413;55.658;37.498;2022-08-19T03:52:38;13.63;;;3.97;;
72422;SDS011;60413;55.658;37.498;2022-08-19T03:55:04;12.25;;;3.60;;
72422;SDS011;60413;55.658;37.498;2022-08-19T03:57:34;8.98;;;3.65;;
72422;SDS011;60413;55.658;37.498;2022-08-19T04:00:03;9.70;;;4.05;;
72422;SDS011;60413;55.658;37.498;2022-08-19T04:02:31;10.00;;;4.97;;
72422;SDS011;60413;55.658;37.498;2022-08-19T04:05:06;8.70;;;3.53;;
72422;SDS011;60413;55.658;37.498;2022-08-19T04:07:35;11.00;;;3.85;;
72422;SDS011;60413;55.658;37.498;2022-08-19T04:10:02;8.05;;;3.80;;
72422;SDS011;60413;55.658;37.498;2022-08-19T04:12:29;12.20;;;4.25;;
72422;SDS011;60413;55.658;37.498;2022-08-19T04:15:04;8.25;;;4.32;;
72422;SDS011;60413;55.658;37.498;2022-08-19T04:17:31;8.40;;;3.60;;
72422;SDS011;60413;55.658;37.498;2022-08-19T04:19:57;12.68;;;4.00;;
72422;SDS011;60413;55.658;37.498;2022-08-19T04:22:23;11.38;;;4.50;;
72422;SDS011;60413;55.658;37.498;2022-08-19T04:24:51;6.50;;;3.45;;
72422;SDS011;60413;55.658;37.498;2022-08-19T04:27:17;10.95;;;3.72;;
72422;SDS011;60413;55.658;37.498;2022-08-19T04:29:44;9.38;;;3.80;;
72422;SDS011;60413;55.658;37.498;2022-08-19T04:32:12;9.23;;;3.80;;
72422;SDS011;60413;55.658;37.498;2022-08-19T04:34:41;10.60;;;4.57;;
72422;SDS011;60413;55.658;37.498;2022-08-19T04:37:08;11.82;;;4.50;;
72422;SDS011;60413;55.658;37.498;2022-08-19T04:39:38;10.00;;;3.67;;
72422;SDS011;60413;55.658;37.498;2022-08-19T04:42:27;10.50;;;4.30;;
72422;SDS011;60413;55.658;37.498;2022-08-19T04:45:06;12.48;;;4.40;;
72422;SDS011;60413;55.658;37.498;2022-08-19T04:47:42;9.57;;;4.28;;
72422;SDS011;60413;55.658;37.498;2022-08-19T04:50:13;7.75;;;3.30;;
72422;SDS011;60413;55.658;37.498;2022-08-19T04:52:40;13.10;;;3.97;;
72422;SDS011;60413;55.658;37.498;2022-08-19T04:55:12;15.85;;;3.13;;
72422;SDS011;60413;55.658;37.498;2022-08-19T04:57:42;8.25;;;3.70;;
72422;SDS011;60413;55.658;37.498;2022-08-19T05:00:11;10.75;;;4.05;;
72422;SDS011;60413;55.658;37.498;2022-08-19T05:02:56;10.50;;;4.38;;
72422;SDS011;60413;55.658;37.498;2022-08-19T05:05:40;12.52;;;4.38;;
72422;SDS011;60413;55.658;37.498;2022-08-19T05:08:09;11.47;;;5.00;;
72422;SDS011;60413;55.658;37.498;2022-08-19T05:10:43;12.02;;;4.28;;
72422;SDS011;60413;55.658;37.498;2022-08-19T05:13:16;9.85;;;4.40;;
72422;SDS011;60413;55.658;37.498;2022-08-19T05:15:53;7.75;;;4.15;;
72422;SDS011;60413;55.658;37.498;2022-08-19T05:18:23;10.05;;;3.65;;
72422;SDS011;60413;55.658;37.498;2022-08-19T05:21:11;8.45;;;4.05;;
72422;SDS011;60413;55.658;37.498;2022-08-19T05:23:58;9.68;;;4.57;;
72422;SDS011;60413;55.658;37.498;2022-08-19T05:26:27;10.40;;;4.50;;
72422;SDS011;60413;55.658;37.498;2022-08-19T05:28:54;14.40;;;4.80;;
72422;SDS011;60413;55.658;37.498;2022-08-19T05:31:20;11.65;;;4.47;;
72422;SDS011;60413;55.658;37.498;2022-08-19T05:33:52;14.38;;;5.03;;
72422;SDS011;60413;55.658;37.498;2022-08-19T05:36:25;12.38;;;5.28;;
72422;SDS011;60413;55.658;37.498;2022-08-19T05:38:52;10.07;;;4.47;;
72422;SDS011;60413;55.658;37.498;2022-08-19T05:41:21;10.70;;;4.50;;
72422;SDS011;60413;55.658;37.498;2022-08-19T05:43:55;14.63;;;5.13;;
72422;SDS011;60413;55.658;37.498;2022-08-19T05:46:41;10.40;;;4.80;;
72422;SDS011;60413;55.658;37.498;2022-08-19T05:49:21;10.25;;;4.22;;
72422;SDS011;60413;55.658;37.498;2022-08-19T05:51:48;10.63;;;4.43;;
72422;SDS011;60413;55.658;37.498;2022-08-19T05:54:34;9.90;;;4.43;;
72422;SDS011;60413;55.658;37.498;2022-08-19T05:57:07;16.48;;;5.00;;
72422;SDS011;60413;55.658;37.498;2022-08-19T05:59:39;15.23;;;4.85;;
72422;SDS011;60413;55.658;37.498;2022-08-19T06:02:05;11.70;;;3.58;;
72422;SDS011;60413;55.658;37.498;2022-08-19T06:04:32;7.85;;;3.83;;
72422;SDS011;60413;55.658;37.498;2022-08-19T06:06:59;10.32;;;3.75;;
72422;SDS011;60413;55.658;37.498;2022-08-19T06:09:34;9.65;;;4.15;;
72422;SDS011;60413;55.658;37.498;2022-08-19T06:12:00;9.93;;;4.78;;
72422;SDS011;60413;55.658;37.498;2022-08-19T06:14:38;9.27;;;4.22;;
72422;SDS011;60413;55.658;37.498;2022-08-19T06:17:08;16.52;;;5.35;;
72422;SDS011;60413;55.658;37.498;2022-08-19T06:19:41;13.75;;;4.80;;
72422;SDS011;60413;55.658;37.498;2022-08-19T06:22:09;15.68;;;4.95;;
72422;SDS011;60413;55.658;37.498;2022-08-19T06:24:37;11.55;;;4.40;;
72422;SDS011;60413;55.658;37.498;2022-08-19T06:27:04;15.75;;;4.22;;
72422;SDS011;60413;55.658;37.498;2022-08-19T06:29:35;13.27;;;4.70;;
72422;SDS011;60413;55.658;37.498;2022-08-19T06:32:05;10.23;;;4.13;;
72422;SDS011;60413;55.658;37.498;2022-08-19T06:34:34;9.45;;;3.72;;
72422;SDS011;60413;55.658;37.498;2022-08-19T06:37:04;16.73;;;4.05;;
72422;SDS011;60413;55.658;37.498;2022-08-19T06:42:08;12.05;;;4.20;;
72422;SDS011;60413;55.658;37.498;2022-08-19T06:44:42;14.93;;;4.38;;
72422;SDS011;60413;55.658;37.498;2022-08-19T06:47:17;11.57;;;4.40;;
72422;SDS011;60413;55.658;37.498;2022-08-19T06:49:55;18.95;;;4.03;;
72422;SDS011;60413;55.658;37.498;2022-08-19T06:52:53;13.00;;;4.25;;
72422;SDS011;60413;55.658;37.498;2022-08-19T06:55:25;17.92;;;4.38;;
72422;SDS011;60413;55.658;37.498;2022-08-19T06:57:55;7.30;;;3.72;;
72422;SDS011;60413;55.658;37.498;2022-08-19T07:00:31;9.00;;;3.55;;
72422;SDS011;60413;55.658;37.498;2022-08-19T07:03:07;8.95;;;3.45;;
72422;SDS011;60413;55.658;37.498;2022-08-19T07:05:41;6.88;;;3.55;;
72422;SDS011;60413;55.658;37.498;2022-08-19T07:08:16;7.68;;;3.67;;
72422;SDS011;60413;55.658;37.498;2022-08-19T07:10:52;10.90;;;4.13;;
72422;SDS011;60413;55.658;37.498;2022-08-19T07:13:24;10.25;;;3.88;;
72422;SDS011;60413;55.658;37.498;2022-08-19T07:15:58;12.38;;;5.00;;
72422;SDS011;60413;55.658;37.498;2022-08-19T07:18:43;13.43;;;4.07;;
72422;SDS011;60413;55.658;37.498;2022-08-19T07:21:27;8.68;;;3.42;;
72422;SDS011;60413;55.658;37.498;2022-08-19T07:24:24;9.98;;;4.03;;
72422;SDS011;60413;55.658;37.498;2022-08-19T07:27:04;5.22;;;2.80;;
72422;SDS011;60413;55.658;37.498;2022-08-19T07:29:35;12.50;;;3.47;;
72422;SDS011;60413;55.658;37.498;2022-08-19T07:32:14;6.53;;;3.75;;
72422;SDS011;60413;55.658;37.498;2022-08-19T07:35:01;6.40;;;3.88;;
72422;SDS011;60413;55.658;37.498;2022-08-19T07:37:41;12.63;;;4.10;;
72422;SDS011;60413;55.658;37.498;2022-08-19T07:40:22;4.82;;;2.47;;
72422;SDS011;60413;55.658;37.498;2022-08-19T07:42:58;11.35;;;3.40;;
72422;SDS011;60413;55.658;37.498;2022-08-19T07:45:26;7.00;;;4.00;;
72422;SDS011;60413;55.658;37.498;2022-08-19T07:48:10;8.23;;;3.63;;
72422;SDS011;60413;55.658;37.498;2022-08-19T07:50:47;7.15;;;3.38;;
72422;SDS011;60413;55.658;37.498;2022-08-19T07:53:14;13.75;;;3.95;;
72422;SDS011;60413;55.658;37.498;2022-08-19T07:55:42;5.78;;;2.60;;
72422;SDS011;60413;55.658;37.498;2022-08-19T07:58:09;6.35;;;3.25;;
72422;SDS011;60413;55.658;37.498;2022-08-19T08:00:38;8.00;;;2.80;;
72422;SDS011;60413;55.658;37.498;2022-08-19T08:03:06;7.45;;;2.70;;
72422;SDS011;60413;55.658;37.498;2022-08-19T08:05:38;7.18;;;2.50;;
72422;SDS011;60413;55.658;37.498;2022-08-19T08:08:25;8.50;;;3.65;;
72422;SDS011;60413;55.658;37.498;2022-08-19T08:11:20;5.18;;;2.22;;
72422;SDS011;60413;55.658;37.498;2022-08-19T08:13:49;7.75;;;2.55;;
72422;SDS011;60413;55.658;37.498;2022-08-19T08:16:20;8.60;;;3.03;;
72422;SDS011;60413;55.658;37.498;2022-08-19T08:18:57;5.28;;;2.80;;
72422;SDS011;60413;55.658;37.498;2022-08-19T08:21:41;8.65;;;3.17;;
72422;SDS011;60413;55.658;37.498;2022-08-19T08:24:07;5.13;;;2.95;;
72422;SDS011;60413;55.658;37.498;2022-08-19T08:26:44;9.30;;;3.28;;
72422;SDS011;60413;55.658;37.498;2022-08-19T08:29:22;8.65;;;3.42;;
72422;SDS011;60413;55.658;37.498;2022-08-19T08:32:03;9.93;;;3.55;;
72422;SDS011;60413;55.658;37.498;2022-08-19T08:34:39;15.52;;;3.63;;
72422;SDS011;60413;55.658;37.498;2022-08-19T08:37:07;6.65;;;2.72;;
72422;SDS011;60413;55.658;37.498;2022-08-19T08:39:34;5.70;;;2.90;;
72422;SDS011;60413;55.658;37.498;2022-08-19T08:45:00;8.93;;;3.67;;
72422;SDS011;60413;55.658;37.498;2022-08-19T08:51:09;9.02;;;3.28;;
72422;SDS011;60413;55.658;37.498;2022-08-19T08:54:13;9.90;;;3.53;;
72422;SDS011;60413;55.658;37.498;2022-08-19T09:03:31;6.15;;;2.97;;
72422;SDS011;60413;55.658;37.498;2022-08-19T09:11:19;5.85;;;2.28;;
72422;SDS011;60413;55.658;37.498;2022-08-19T09:14:10;8.52;;;2.88;;
72422;SDS011;60413;55.658;37.498;2022-08-19T09:16:57;6.85;;;2.47;;
72422;SDS011;60413;55.658;37.498;2022-08-19T09:19:23;8.75;;;2.85;;
72422;SDS011;60413;55.658;37.498;2022-08-19T09:21:59;11.98;;;2.70;;
72422;SDS011;60413;55.658;37.498;2022-08-19T09:24:46;7.05;;;2.95;;
72422;SDS011;60413;55.658;37.498;2022-08-19T09:27:20;8.18;;;2.78;;
72422;SDS011;60413;55.658;37.498;2022-08-19T09:29:49;4.68;;;2.00;;
72422;SDS011;60413;55.658;37.498;2022-08-19T09:32:26;4.25;;;2.10;;
72422;SDS011;60413;55.658;37.498;2022-08-19T09:35:13;6.15;;;2.95;;
72422;SDS011;60413;55.658;37.498;2022-08-19T09:38:06;5.88;;;2.78;;
72422;SDS011;60413;55.658;37.498;2022-08-19T09:40:37;9.13;;;2.60;;
72422;SDS011;60413;55.658;37.498;2022-08-19T09:43:08;7.18;;;2.65;;
72422;SDS011;60413;55.658;37.498;2022-08-19T09:45:39;4.95;;;2.63;;
72422;SDS011;60413;55.658;37.498;2022-08-19T09:48:11;4.95;;;2.85;;
72422;SDS011;60413;55.658;37.498;2022-08-19T09:50:42;11.00;;;3.05;;
72422;SDS011;60413;55.658;37.498;2022-08-19T09:53:11;6.50;;;2.40;;
72422;SDS011;60413;55.658;37.498;2022-08-19T09:55:56;6.70;;;2.85;;
72422;SDS011;60413;55.658;37.498;2022-08-19T09:58:25;6.18;;;3.10;;
72422;SDS011;60413;55.658;37.498;2022-08-19T10:00:53;13.07;;;3.53;;
72422;SDS011;60413;55.658;37.498;2022-08-19T10:03:23;8.07;;;2.28;;
72422;SDS011;60413;55.658;37.498;2022-08-19T10:05:49;7.40;;;2.72;;
72422;SDS011;60413;55.658;37.498;2022-08-19T10:08:22;6.43;;;2.25;;
72422;SDS011;60413;55.658;37.498;2022-08-19T10:10:58;9.90;;;2.47;;
72422;SDS011;60413;55.658;37.498;2022-08-19T10:13:28;6.85;;;2.58;;
72422;SDS011;60413;55.658;37.498;2022-08-19T10:15:56;10.25;;;2.22;;
72422;SDS011;60413;55.658;37.498;2022-08-19T10:18:40;6.68;;;3.42;;
72422;SDS011;60413;55.658;37.498;2022-08-19T10:21:22;8.75;;;2.60;;
72422;SDS011;60413;55.658;37.498;2022-08-19T10:23:55;7.43;;;2.15;;
72422;SDS011;60413;55.658;37.498;2022-08-19T10:26:24;5.88;;;1.88;;
72422;SDS011;60413;55.658;37.498;2022-08-19T10:29:01;8.98;;;2.53;;
72422;SDS011;60413;55.658;37.498;2022-08-19T10:31:37;6.93;;;2.28;;
72422;SDS011;60413;55.658;37.498;2022-08-19T10:34:04;4.72;;;2.00;;
72422;SDS011;60413;55.658;37.498;2022-08-19T10:36:38;10.38;;;1.92;;
72422;SDS011;60413;55.658;37.498;2022-08-19T10:39:13;6.15;;;1.90;;
72422;SDS011;60413;55.658;37.498;2022-08-19T10:41:46;10.70;;;2.35;;
72422;SDS011;60413;55.658;37.498;2022-08-19T10:44:18;9.32;;;2.40;;
72422;SDS011;60413;55.658;37.498;2022-08-19T10:46:48;7.05;;;1.90;;
72422;SDS011;60413;55.658;37.498;2022-08-19T10:49:18;8.48;;;1.98;;
72422;SDS011;60413;55.658;37.498;2022-08-19T10:51:44;8.80;;;1.90;;
72422;SDS011;60413;55.658;37.498;2022-08-19T10:54:32;6.47;;;2.13;;
72422;SDS011;60413;55.658;37.498;2022-08-19T10:57:19;5.68;;;1.60;;
72422;SDS011;60413;55.658;37.498;2022-08-19T10:59:55;5.45;;;2.10;;
72422;SDS011;60413;55.658;37.498;2022-08-19T11:02:24;5.00;;;1.77;;
72422;SDS011;60413;55.658;37.498;2022-08-19T11:05:06;8.68;;;2.17;;
72422;SDS011;60413;55.658;37.498;2022-08-19T11:07:40;5.40;;;1.85;;
72422;SDS011;60413;55.658;37.498;2022-08-19T11:10:10;3.65;;;2.13;;
72422;SDS011;60413;55.658;37.498;2022-08-19T11:12:44;14.98;;;2.60;;
72422;SDS011;60413;55.658;37.498;2022-08-19T11:15:11;10.65;;;2.30;;
72422;SDS011;60413;55.658;37.498;2022-08-19T11:17:38;8.98;;;2.50;;
72422;SDS011;60413;55.658;37.498;2022-08-19T11:20:09;12.98;;;1.90;;
72422;SDS011;60413;55.658;37.498;2022-08-19T11:23:03;3.42;;;1.40;;
72422;SDS011;60413;55.658;37.498;2022-08-19T11:25:38;5.75;;;1.77;;
72422;SDS011;60413;55.658;37.498;2022-08-19T11:28:07;6.45;;;2.15;;
72422;SDS011;60413;55.658;37.498;2022-08-19T11:30:37;3.72;;;1.92;;
72422;SDS011;60413;55.658;37.498;2022-08-19T11:33:29;5.10;;;1.60;;
72422;SDS011;60413;55.658;37.498;2022-08-19T11:36:11;7.70;;;2.28;;
72422;SDS011;60413;55.658;37.498;2022-08-19T11:38:41;5.93;;;2.50;;
72422;SDS011;60413;55.658;37.498;2022-08-19T11:41:14;7.30;;;2.22;;
72422;SDS011;60413;55.658;37.498;2022-08-19T11:43:49;6.18;;;1.88;;
72422;SDS011;60413;55.658;37.498;2022-08-19T11:46:23;8.77;;;2.22;;
72422;SDS011;60413;55.658;37.498;2022-08-19T11:48:58;10.23;;;2.20;;
72422;SDS011;60413;55.658;37.498;2022-08-19T11:51:28;8.48;;;3.55;;
72422;SDS011;60413;55.658;37.498;2022-08-19T11:53:56;4.50;;;2.03;;
72422;SDS011;60413;55.658;37.498;2022-08-19T11:56:25;6.20;;;2.10;;
72422;SDS011;60413;55.658;37.498;2022-08-19T11:58:53;7.00;;;2.25;;
72422;SDS011;60413;55.658;37.498;2022-08-19T12:01:30;3.35;;;1.70;;
72422;SDS011;60413;55.658;37.498;2022-08-19T12:03:57;3.28;;;1.67;;
72422;SDS011;60413;55.658;37.498;2022-08-19T12:06:30;7.38;;;2.88;;
72422;SDS011;60413;55.658;37.498;2022-08-19T12:09:04;8.02;;;2.28;;
72422;SDS011;60413;55.658;37.498;2022-08-19T12:11:33;6.80;;;2.20;;
72422;SDS011;60413;55.658;37.498;2022-08-19T12:13:59;6.47;;;2.33;;
72422;SDS011;60413;55.658;37.498;2022-08-19T12:16:35;6.75;;;2.25;;
72422;SDS011;60413;55.658;37.498;2022-08-19T12:19:03;11.27;;;2.60;;
72422;SDS011;60413;55.658;37.498;2022-08-19T12:21:40;3.50;;;1.80;;
72422;SDS011;60413;55.658;37.498;2022-08-19T12:24:24;7.38;;;2.10;;
72422;SDS011;60413;55.658;37.498;2022-08-19T12:26:50;4.60;;;2.00;;
72422;SDS011;60413;55.658;37.498;2022-08-19T12:29:20;5.03;;;1.92;;
72422;SDS011;60413;55.658;37.498;2022-08-19T12:31:48;7.95;;;2.95;;
72422;SDS011;60413;55.658;37.498;2022-08-19T12:34:27;7.70;;;2.75;;
72422;SDS011;60413;55.658;37.498;2022-08-19T12:36:58;9.77;;;3.17;;
72422;SDS011;60413;55.658;37.498;2022-08-19T12:39:29;6.60;;;2.42;;
72422;SDS011;60413;55.658;37.498;2022-08-19T12:42:01;5.05;;;2.47;;
72422;SDS011;60413;55.658;37.498;2022-08-19T12:44:30;11.18;;;2.80;;
72422;SDS011;60413;55.658;37.498;2022-08-19T12:46:59;6.95;;;2.45;;
72422;SDS011;60413;55.658;37.498;2022-08-19T12:49:26;7.10;;;2.58;;
72422;SDS011;60413;55.658;37.498;2022-08-19T12:51:53;12.57;;;3.13;;
72422;SDS011;60413;55.658;37.498;2022-08-19T12:54:19;10.02;;;3.05;;
72422;SDS011;60413;55.658;37.498;2022-08-19T12:56:48;8.55;;;2.08;;
72422;SDS011;60413;55.658;37.498;2022-08-19T12:59:14;7.90;;;2.50;;
72422;SDS011;60413;55.658;37.498;2022-08-19T13:01:44;10.48;;;5.35;;
72422;SDS011;60413;55.658;37.498;2022-08-19T13:04:11;7.72;;;2.80;;
72422;SDS011;60413;55.658;37.498;2022-08-19T13:06:39;12.00;;;2.33;;
72422;SDS011;60413;55.658;37.498;2022-08-19T13:09:11;6.38;;;2.90;;
72422;SDS011;60413;55.658;37.498;2022-08-19T13:11:37;12.25;;;3.05;;
72422;SDS011;60413;55.658;37.498;2022-08-19T13:14:05;10.25;;;2.97;;
72422;SDS011;60413;55.658;37.498;2022-08-19T13:16:32;10.88;;;2.83;;
72422;SDS011;60413;55.658;37.498;2022-08-19T13:19:10;6.22;;;2.58;;
72422;SDS011;60413;55.658;37.498;2022-08-19T13:21:41;8.50;;;3.20;;
72422;SDS011;60413;55.658;37.498;2022-08-19T13:24:12;5.05;;;2.85;;
72422;SDS011;60413;55.658;37.498;2022-08-19T13:26:42;7.22;;;2.70;;
72422;SDS011;60413;55.658;37.498;2022-08-19T13:29:11;7.68;;;3.00;;
72422;SDS011;60413;55.658;37.498;2022-08-19T13:31:56;8.50;;;3.97;;
72422;SDS011;60413;55.658;37.498;2022-08-19T13:34:49;13.57;;;4.07;;
72422;SDS011;60413;55.658;37.498;2022-08-19T13:37:16;14.52;;;4.10;;
72422;SDS011;60413;55.658;37.498;2022-08-19T13:40:02;10.20;;;4.22;;
72422;SDS011;60413;55.658;37.498;2022-08-19T13:42:30;5.40;;;3.75;;
72422;SDS011;60413;55.658;37.498;2022-08-19T13:45:02;10.27;;;3.53;;
72422;SDS011;60413;55.658;37.498;2022-08-19T13:47:30;10.15;;;3.83;;
72422;SDS011;60413;55.658;37.498;2022-08-19T13:50:02;14.90;;;4.03;;
72422;SDS011;60413;55.658;37.498;2022-08-19T13:52:30;8.07;;;4.85;;
72422;SDS011;60413;55.658;37.498;2022-08-19T13:55:19;9.85;;;5.45;;
72422;SDS011;60413;55.658;37.498;2022-08-19T13:57:56;12.55;;;7.68;;
72422;SDS011;60413;55.658;37.498;2022-08-19T14:00:26;13.73;;;6.55;;
72422;SDS011;60413;55.658;37.498;2022-08-19T14:03:02;12.43;;;6.97;;
72422;SDS011;60413;55.658;37.498;2022-08-19T14:05:29;13.07;;;6.78;;
72422;SDS011;60413;55.658;37.498;2022-08-19T14:07:55;11.50;;;6.93;;
72422;SDS011;60413;55.658;37.498;2022-08-19T14:10:22;13.75;;;9.57;;
72422;SDS011;60413;55.658;37.498;2022-08-19T14:12:53;13.35;;;8.35;;
72422;SDS011;60413;55.658;37.498;2022-08-19T14:15:24;20.08;;;9.75;;
72422;SDS011;60413;55.658;37.498;2022-08-19T14:17:53;17.60;;;12.05;;
72422;SDS011;60413;55.658;37.498;2022-08-19T14:20:19;19.05;;;11.80;;
72422;SDS011;60413;55.658;37.498;2022-08-19T14:22:46;19.75;;;9.95;;
72422;SDS011;60413;55.658;37.498;2022-08-19T14:25:14;16.65;;;9.77;;
72422;SDS011;60413;55.658;37.498;2022-08-19T14:27:45;15.10;;;9.40;;
72422;SDS011;60413;55.658;37.498;2022-08-19T14:30:12;14.10;;;8.45;;
72422;SDS011;60413;55.658;37.498;2022-08-19T14:32:42;16.05;;;8.30;;
72422;SDS011;60413;55.658;37.498;2022-08-19T14:35:14;22.80;;;8.60;;
72422;SDS011;60413;55.658;37.498;2022-08-19T14:37:42;14.07;;;8.00;;
72422;SDS011;60413;55.658;37.498;2022-08-19T14:40:15;17.40;;;7.95;;
72422;SDS011;60413;55.658;37.498;2022-08-19T14:42:46;13.40;;;6.07;;
72422;SDS011;60413;55.658;37.498;2022-08-19T14:45:17;13.40;;;6.93;;
72422;SDS011;60413;55.658;37.498;2022-08-19T14:47:43;16.60;;;8.43;;
72422;SDS011;60413;55.658;37.498;2022-08-19T14:50:09;23.10;;;11.15;;
72422;SDS011;60413;55.658;37.498;2022-08-19T14:52:46;29.38;;;17.23;;
72422;SDS011;60413;55.658;37.498;2022-08-19T14:55:13;19.50;;;13.32;;
72422;SDS011;60413;55.658;37.498;2022-08-19T14:57:43;21.20;;;13.02;;
72422;SDS011;60413;55.658;37.498;2022-08-19T15:00:12;22.45;;;13.07;;
72422;SDS011;60413;55.658;37.498;2022-08-19T15:02:39;23.20;;;14.05;;
72422;SDS011;60413;55.658;37.498;2022-08-19T15:05:17;20.25;;;11.93;;
72422;SDS011;60413;55.658;37.498;2022-08-19T15:07:43;34.05;;;13.38;;
72422;SDS011;60413;55.658;37.498;2022-08-19T15:10:22;25.38;;;11.32;;
72422;SDS011;60413;55.658;37.498;2022-08-19T15:12:52;20.65;;;12.00;;
72422;SDS011;60413;55.658;37.498;2022-08-19T15:15:22;17.70;;;10.05;;
72422;SDS011;60413;55.658;37.498;2022-08-19T15:17:58;21.85;;;10.80;;
72422;SDS011;60413;55.658;37.498;2022-08-19T15:20:28;22.42;;;9.82;;
72422;SDS011;60413;55.658;37.498;2022-08-19T15:23:02;15.93;;;9.23;;